Airfield :
LOGIN :

Register | Disclaimer

   EN    FR    IT 

 










Legend :    VFR   Marginal VFR   IFR   Intensive IFR   Very Intensive IFR
Visi :
Ceiling :
>= 8 km
>= 3000ft
5 to 8 km
1000 to 3000 ft
1500m to 5 km
500 to 1000 ft
800 to 1500m
200 to 500 ft
< 800m
< 200 ft
Symbols :   Thunderstorms  Fog  Heavy snow  Heavy precipitations  Wind > 20 kt
SIGMETs :     Misc.  Thunderstorms  Icing  Turbulence  Mountain Waves  Volcanic Ashes






- Airport Elevation : 142 ft
- IATA code : FLR


LIRQ - Firenze Amerigo Vespucci

CURRENT METAR :
  • 071620Z 30010KT 260V320 9999 SCT045 19/12 Q1012

EXPIRED METARs :
  • 071550Z 30011KT 9999 BKN045 19/12 Q1012
  • 071520Z 30010KT 9999 BKN045 20/12 Q1011
  • 071450Z 29009KT 260V320 9999 BKN045 21/12 Q1011
  • 071420Z 29012KT 260V330 9999 BKN045 21/12 Q1011
  • 071350Z 28014G24KT 250V320 9999 BKN045 20/11 Q1011

TAF TAF LIRQ
Valid from the 07 at 12:00 until the 08 at 12:00 UTC


071100Z 0712/0812 26012KT 9999 SCT040
TEMPO 0712/0716 26016G26KT
BECMG 0719/0721 VRB05KT
BECMG 0805/0807 02010KT



MET'MAP, your aeronautical weather chart ! - Copyright ORBIFLY December 2007 - Disclaimer

ORBIFLY MET'MAP TEAM :

Programming & Development : Alexandra Zaïnal
Concept & original design : Baudouin d'Aumeries
Assistance for programming : Marc-Olivier Méhu
Technical & hardware support : Manuel Goepfert

Contact : metmap@orbifly.com




SOURCES & CREDITS :

   NOAA